createdAt,value
2022-09-28T00:00:42.007Z,42.80
2022-09-28T00:01:44.505Z,42.70
2022-09-28T00:02:46.897Z,42.80
2022-09-28T00:03:49.971Z,42.90
2022-09-28T00:04:52.094Z,42.90
2022-09-28T00:06:00.146Z,42.90
2022-09-28T00:07:02.355Z,43.00
2022-09-28T00:08:04.483Z,43.50
2022-09-28T00:09:06.643Z,43.20
2022-09-28T00:10:09.258Z,43.20
2022-09-28T00:11:13.645Z,42.40
2022-09-28T00:12:15.747Z,42.20
2022-09-28T00:13:18.036Z,41.90
2022-09-28T00:14:21.000Z,42.10
2022-09-28T00:15:24.628Z,42.20
2022-09-28T00:16:28.849Z,43.00
2022-09-28T00:17:31.033Z,43.20
2022-09-28T00:18:33.503Z,43.30
2022-09-28T00:19:35.616Z,43.40
2022-09-28T00:20:37.751Z,43.50
2022-09-28T00:21:40.725Z,43.50
2022-09-28T00:22:42.900Z,43.70
2022-09-28T00:24:03.932Z,43.70
2022-09-28T00:25:06.758Z,43.80
2022-09-28T00:26:08.911Z,43.90
2022-09-28T00:27:11.318Z,43.90
2022-09-28T00:28:13.535Z,43.90
2022-09-28T00:29:22.974Z,44.00
2022-09-28T00:30:25.152Z,44.00
2022-09-28T00:31:29.583Z,44.10
2022-09-28T00:32:31.998Z,44.10
2022-09-28T00:33:34.230Z,44.10
2022-09-28T00:34:38.147Z,44.10
2022-09-28T00:35:40.385Z,44.20
2022-09-28T00:36:43.775Z,44.20
2022-09-28T00:37:48.800Z,44.20
2022-09-28T00:38:52.208Z,44.40
2022-09-28T00:39:54.354Z,44.30
2022-09-28T00:40:56.570Z,44.20
2022-09-28T00:41:59.696Z,44.20
2022-09-28T00:43:16.368Z,43.60
2022-09-28T00:44:24.379Z,43.60
2022-09-28T00:45:26.655Z,43.70
2022-09-28T00:46:32.440Z,43.80
2022-09-28T00:47:43.170Z,43.70
2022-09-28T00:48:52.024Z,43.80
2022-09-28T00:50:23.738Z,43.80
2022-09-28T00:51:26.544Z,43.90
2022-09-28T00:52:46.517Z,44.00
2022-09-28T00:53:50.278Z,44.80
2022-09-28T00:54:53.117Z,44.50
2022-09-28T00:55:57.229Z,44.60
2022-09-28T00:57:01.143Z,44.70
2022-09-28T00:58:05.352Z,44.90
2022-09-28T00:59:08.632Z,44.90
2022-09-28T01:00:11.203Z,44.90
2022-09-28T01:01:14.687Z,45.00
2022-09-28T01:02:17.210Z,45.00
2022-09-28T01:03:19.671Z,45.00
2022-09-28T01:04:24.199Z,45.00
2022-09-28T01:05:29.431Z,44.90
2022-09-28T01:06:33.932Z,45.00
2022-09-28T01:07:37.310Z,45.00
2022-09-28T01:08:39.655Z,45.00
2022-09-28T01:09:45.160Z,45.00
2022-09-28T01:10:51.193Z,45.00
2022-09-28T01:11:55.265Z,45.00
2022-09-28T01:12:58.734Z,45.00
2022-09-28T01:14:01.048Z,45.10
2022-09-28T01:15:04.287Z,45.20
2022-09-28T01:16:24.829Z,45.20
2022-09-28T01:17:37.790Z,45.30
2022-09-28T01:18:51.789Z,45.20
2022-09-28T01:19:55.194Z,45.30
2022-09-28T01:21:02.353Z,45.40
2022-09-28T01:22:11.068Z,45.50
2022-09-28T01:23:23.966Z,45.60
2022-09-28T01:24:40.848Z,45.60
2022-09-28T01:25:50.750Z,45.70
2022-09-28T01:26:52.987Z,45.80
2022-09-28T01:27:59.708Z,45.90
2022-09-28T01:29:09.782Z,45.90
2022-09-28T01:30:14.534Z,45.90
2022-09-28T01:31:18.504Z,46.00
2022-09-28T01:32:20.867Z,46.10
2022-09-28T01:33:26.210Z,46.20
2022-09-28T01:34:30.836Z,46.20
2022-09-28T01:35:45.780Z,46.20
2022-09-28T01:36:53.735Z,46.20
2022-09-28T01:38:00.423Z,46.10
2022-09-28T01:39:05.330Z,46.10
2022-09-28T01:40:08.846Z,46.10
2022-09-28T01:41:12.358Z,46.10
2022-09-28T01:42:19.880Z,46.10
2022-09-28T01:43:28.771Z,46.10
2022-09-28T01:44:32.934Z,46.10
2022-09-28T01:45:40.775Z,46.00
2022-09-28T01:46:45.387Z,45.90
2022-09-28T01:47:50.017Z,46.00
2022-09-28T01:48:55.182Z,45.90
2022-09-28T01:50:03.843Z,46.40
2022-09-28T01:51:08.760Z,46.00
2022-09-28T01:52:15.393Z,45.90
2022-09-28T01:53:39.022Z,45.90
2022-09-28T01:54:55.155Z,45.90
2022-09-28T01:55:59.432Z,46.00
2022-09-28T01:57:27.648Z,45.90
2022-09-28T01:58:59.145Z,45.80
2022-09-28T02:00:04.224Z,45.70
2022-09-28T02:01:20.498Z,45.80
2022-09-28T02:02:25.705Z,45.90
2022-09-28T02:03:49.129Z,45.90
2022-09-28T02:04:55.469Z,45.90
2022-09-28T02:06:01.479Z,45.80
2022-09-28T02:07:08.652Z,45.90
2022-09-28T02:08:13.787Z,46.00
2022-09-28T02:09:20.216Z,45.90
2022-09-28T02:10:24.660Z,45.90
2022-09-28T02:11:27.383Z,45.90
2022-09-28T02:12:35.857Z,46.00
2022-09-28T02:13:44.297Z,46.00
2022-09-28T02:14:49.120Z,46.00
2022-09-28T02:15:52.869Z,46.00
2022-09-28T02:16:55.398Z,46.00
2022-09-28T02:18:03.588Z,46.10
2022-09-28T02:19:06.884Z,46.10
2022-09-28T02:20:10.831Z,46.20
2022-09-28T02:21:17.437Z,46.70
2022-09-28T02:22:23.225Z,46.70
2022-09-28T02:23:28.788Z,46.20
2022-09-28T02:24:40.464Z,46.20
2022-09-28T02:25:46.915Z,46.20
2022-09-28T02:26:49.919Z,46.50
2022-09-28T02:27:55.566Z,46.40
2022-09-28T02:28:58.369Z,46.30
2022-09-28T02:30:00.794Z,46.40
2022-09-28T02:31:03.255Z,46.30
2022-09-28T02:32:05.649Z,46.60
2022-09-28T02:33:21.991Z,46.70
2022-09-28T02:34:24.401Z,46.70
2022-09-28T02:35:26.660Z,46.70
2022-09-28T02:36:29.707Z,46.80
2022-09-28T02:37:33.078Z,46.90
2022-09-28T02:38:36.360Z,46.90
2022-09-28T02:39:39.277Z,47.00
2022-09-28T02:40:43.108Z,46.90
2022-09-28T02:41:55.027Z,46.90
2022-09-28T02:43:03.922Z,46.80
2022-09-28T02:44:21.836Z,46.90
2022-09-28T02:45:46.917Z,46.80
2022-09-28T02:46:52.640Z,46.80
2022-09-28T02:48:24.070Z,46.90
2022-09-28T02:49:45.656Z,47.00
2022-09-28T02:50:57.050Z,46.90
2022-09-28T02:52:05.068Z,47.00
2022-09-28T02:53:15.305Z,47.00
2022-09-28T02:54:26.251Z,47.10
2022-09-28T02:55:37.304Z,47.20
2022-09-28T02:56:45.369Z,47.20
2022-09-28T02:57:50.391Z,47.20
2022-09-28T02:58:59.261Z,47.20
2022-09-28T03:00:10.539Z,47.30
2022-09-28T03:01:34.337Z,47.10
2022-09-28T03:02:41.890Z,47.00
2022-09-28T03:03:55.437Z,47.20
2022-09-28T03:05:09.462Z,47.20
2022-09-28T03:06:24.109Z,47.70
2022-09-28T03:07:29.867Z,47.40
2022-09-28T03:08:41.193Z,47.30
2022-09-28T03:10:07.872Z,47.70
2022-09-28T03:11:15.512Z,47.50
2022-09-28T03:12:18.688Z,47.30
2022-09-28T03:13:21.036Z,47.30
2022-09-28T03:14:23.499Z,47.40
2022-09-28T03:15:32.825Z,47.30
2022-09-28T03:16:35.792Z,47.20
2022-09-28T03:17:38.218Z,47.30
2022-09-28T03:18:41.001Z,47.30
2022-09-28T03:19:43.290Z,47.30
2022-09-28T03:20:45.816Z,47.20
2022-09-28T03:21:47.967Z,47.20
2022-09-28T03:23:06.367Z,47.20
2022-09-28T03:24:13.387Z,47.20
2022-09-28T03:25:15.854Z,47.00
2022-09-28T03:26:19.846Z,47.20
2022-09-28T03:27:22.562Z,47.20
2022-09-28T03:28:25.948Z,47.00
2022-09-28T03:29:31.272Z,47.10
2022-09-28T03:30:36.561Z,47.30
2022-09-28T03:31:38.797Z,46.20
2022-09-28T03:32:41.156Z,46.10
2022-09-28T03:33:44.413Z,46.40
2022-09-28T03:34:46.628Z,46.30
2022-09-28T03:35:50.287Z,46.80
2022-09-28T03:36:53.016Z,47.20
2022-09-28T03:37:55.985Z,47.30
2022-09-28T03:38:59.605Z,47.40
2022-09-28T03:40:02.367Z,47.10
2022-09-28T03:41:05.151Z,47.30
2022-09-28T03:42:10.537Z,47.30
2022-09-28T03:43:16.592Z,47.20
2022-09-28T03:44:18.840Z,47.30
2022-09-28T03:45:21.288Z,47.30
2022-09-28T03:46:25.627Z,47.20
2022-09-28T03:47:31.605Z,47.10
2022-09-28T03:48:35.206Z,46.80
2022-09-28T03:49:37.389Z,46.80
2022-09-28T03:50:39.675Z,46.80
2022-09-28T03:51:44.852Z,46.80
2022-09-28T03:52:47.940Z,47.00
2022-09-28T03:53:50.262Z,47.10
2022-09-28T03:54:52.476Z,47.00
2022-09-28T03:55:54.684Z,47.10
2022-09-28T03:56:56.915Z,47.10
2022-09-28T03:57:59.266Z,47.00
2022-09-28T03:59:02.808Z,47.10
2022-09-28T04:00:05.927Z,47.20
2022-09-28T04:01:18.796Z,47.10
2022-09-28T04:02:22.446Z,47.10
2022-09-28T04:03:25.438Z,45.70
2022-09-28T04:04:28.132Z,45.60
2022-09-28T04:05:30.566Z,45.90
2022-09-28T04:06:32.841Z,46.00
2022-09-28T04:07:35.727Z,46.80
2022-09-28T04:08:38.047Z,46.60
2022-09-28T04:09:40.219Z,45.90
2022-09-28T04:10:42.782Z,45.80
2022-09-28T04:12:02.816Z,45.70
2022-09-28T04:13:06.216Z,45.90
2022-09-28T04:14:08.887Z,45.90
2022-09-28T04:15:11.399Z,46.00
2022-09-28T04:16:13.778Z,46.20
2022-09-28T04:17:19.145Z,46.20
2022-09-28T04:18:22.196Z,46.30
2022-09-28T04:19:50.568Z,46.50
2022-09-28T04:21:17.754Z,46.60
2022-09-28T04:22:23.323Z,46.70
2022-09-28T04:23:25.538Z,46.60
2022-09-28T04:24:27.967Z,46.80
2022-09-28T04:25:30.133Z,46.90
2022-09-28T04:26:33.272Z,46.90
2022-09-28T04:27:53.838Z,47.00
2022-09-28T04:29:14.554Z,47.00
2022-09-28T04:30:18.531Z,47.00
2022-09-28T04:31:22.580Z,47.40
2022-09-28T04:32:24.872Z,47.50
2022-09-28T04:33:27.010Z,47.70
2022-09-28T04:34:34.566Z,48.30
2022-09-28T04:35:38.028Z,48.50
2022-09-28T04:36:40.780Z,48.70
2022-09-28T04:37:44.265Z,48.80
2022-09-28T04:38:53.153Z,49.00
2022-09-28T04:39:56.899Z,49.20
2022-09-28T04:40:59.111Z,49.20
2022-09-28T04:42:01.792Z,49.00
2022-09-28T04:43:04.572Z,48.60
2022-09-28T04:44:07.442Z,48.60
2022-09-28T04:45:09.808Z,48.80
2022-09-28T04:46:15.325Z,48.40
2022-09-28T04:47:25.229Z,48.80
2022-09-28T04:49:02.899Z,48.40
2022-09-28T04:50:19.629Z,48.10
2022-09-28T04:51:40.570Z,48.50
2022-09-28T04:52:42.766Z,48.10
2022-09-28T04:53:44.906Z,48.30
2022-09-28T04:54:48.240Z,48.20
2022-09-28T04:56:01.703Z,47.90
2022-09-28T04:57:05.951Z,47.80
2022-09-28T04:58:08.161Z,47.80
2022-09-28T04:59:10.399Z,48.20
2022-09-28T05:00:13.182Z,47.80
2022-09-28T05:01:19.917Z,47.70
2022-09-28T05:02:51.005Z,47.80
2022-09-28T05:04:11.718Z,47.60
2022-09-28T05:05:23.702Z,47.30
2022-09-28T05:06:43.843Z,47.50
2022-09-28T05:07:47.937Z,47.10
2022-09-28T05:08:50.432Z,47.30
2022-09-28T05:09:53.189Z,47.50
2022-09-28T05:10:59.769Z,47.10
2022-09-28T05:12:01.989Z,47.10
2022-09-28T05:13:05.205Z,46.90
2022-09-28T05:14:07.558Z,47.00
2022-09-28T05:15:09.932Z,47.00
2022-09-28T05:16:13.131Z,46.90
2022-09-28T05:17:33.865Z,46.70
2022-09-28T05:18:44.597Z,47.30
2022-09-28T05:19:46.737Z,48.00
2022-09-28T05:20:49.007Z,47.80
2022-09-28T05:21:51.224Z,48.20
2022-09-28T05:22:53.484Z,47.80
2022-09-28T05:23:56.649Z,47.80
2022-09-28T05:25:00.246Z,47.80
2022-09-28T05:26:06.183Z,47.90
2022-09-28T05:27:10.913Z,47.60
2022-09-28T05:28:13.189Z,47.80
2022-09-28T05:29:35.608Z,47.60
2022-09-28T05:31:13.082Z,47.40
2022-09-28T05:32:47.268Z,47.70
2022-09-28T05:34:08.157Z,47.80
2022-09-28T05:35:13.731Z,47.30
2022-09-28T05:36:20.297Z,47.90
2022-09-28T05:37:22.451Z,47.50
2022-09-28T05:38:25.013Z,47.40
2022-09-28T05:39:27.129Z,48.30
2022-09-28T05:40:29.360Z,47.90
2022-09-28T05:41:31.588Z,47.90
2022-09-28T05:42:35.335Z,48.00
2022-09-28T05:43:38.377Z,48.10
2022-09-28T05:44:40.800Z,47.90
2022-09-28T05:45:43.127Z,47.60
2022-09-28T05:46:45.434Z,47.90
2022-09-28T05:47:48.480Z,47.90
2022-09-28T05:48:54.411Z,47.90
2022-09-28T05:49:56.721Z,47.70
2022-09-28T05:50:59.598Z,47.60
2022-09-28T05:52:02.042Z,48.30
2022-09-28T05:53:06.057Z,48.40
2022-09-28T05:54:08.468Z,48.40
2022-09-28T05:55:14.198Z,48.20
2022-09-28T05:56:17.188Z,47.50
2022-09-28T05:57:20.314Z,47.40
2022-09-28T05:58:22.683Z,47.60
2022-09-28T05:59:25.009Z,47.70
2022-09-28T06:00:27.834Z,47.60
2022-09-28T06:01:31.800Z,48.20
2022-09-28T06:02:35.338Z,48.00
2022-09-28T06:03:37.658Z,48.00
2022-09-28T06:04:40.254Z,48.00
2022-09-28T06:05:42.677Z,48.30
2022-09-28T06:06:45.069Z,48.20
2022-09-28T06:07:47.373Z,48.20
2022-09-28T06:08:49.999Z,48.30
2022-09-28T06:10:31.218Z,48.50
2022-09-28T06:11:36.022Z,48.40
2022-09-28T06:12:45.528Z,48.40
2022-09-28T06:13:52.945Z,48.30
2022-09-28T06:14:55.229Z,48.30
2022-09-28T06:15:58.324Z,48.50
2022-09-28T06:17:01.969Z,48.30
2022-09-28T06:18:04.190Z,48.40
2022-09-28T06:19:26.637Z,48.50
2022-09-28T06:20:42.326Z,48.50
2022-09-28T06:21:49.373Z,48.50
2022-09-28T06:22:52.804Z,48.40
2022-09-28T06:23:55.022Z,47.70
2022-09-28T06:24:57.176Z,47.10
2022-09-28T06:26:00.377Z,46.60
2022-09-28T06:27:02.643Z,46.40
2022-09-28T06:28:09.628Z,46.30
2022-09-28T06:29:19.236Z,46.20
2022-09-28T06:30:22.226Z,46.90
2022-09-28T06:31:24.979Z,47.70
2022-09-28T06:32:29.214Z,48.00
2022-09-28T06:33:31.828Z,48.10
2022-09-28T06:34:35.125Z,48.10
2022-09-28T06:35:37.401Z,48.20
2022-09-28T06:36:39.975Z,48.20
2022-09-28T06:37:44.332Z,48.20
2022-09-28T06:38:47.018Z,48.30
2022-09-28T06:39:49.899Z,48.30
2022-09-28T06:40:52.248Z,48.30
2022-09-28T06:41:54.600Z,48.00
2022-09-28T06:42:57.846Z,47.70
2022-09-28T06:44:24.181Z,48.20
2022-09-28T06:45:57.446Z,48.30
2022-09-28T06:47:19.917Z,48.60
2022-09-28T06:48:39.197Z,48.60
2022-09-28T06:49:44.303Z,48.70
2022-09-28T06:51:05.020Z,48.80
2022-09-28T06:52:11.915Z,47.90
2022-09-28T06:53:32.987Z,47.70
2022-09-28T06:55:04.527Z,48.20
2022-09-28T06:56:16.800Z,48.60
2022-09-28T06:57:19.911Z,48.70
2022-09-28T06:58:23.249Z,48.60
2022-09-28T06:59:25.873Z,48.60
2022-09-28T07:00:28.988Z,48.60
2022-09-28T07:01:31.379Z,48.70
2022-09-28T07:02:41.672Z,48.60
2022-09-28T07:03:55.536Z,48.70
2022-09-28T07:05:16.761Z,48.70
2022-09-28T07:06:38.521Z,48.70
2022-09-28T07:07:59.525Z,48.60
2022-09-28T07:09:32.821Z,48.60
2022-09-28T07:10:58.754Z,48.70
2022-09-28T07:12:17.097Z,48.70
2022-09-28T07:13:48.561Z,48.60
2022-09-28T07:14:57.203Z,48.60
2022-09-28T07:16:03.327Z,49.20
2022-09-28T07:17:13.690Z,48.70
2022-09-28T07:18:17.805Z,48.60
2022-09-28T07:19:20.163Z,48.60
2022-09-28T07:20:22.387Z,48.60
2022-09-28T07:21:30.187Z,48.60
2022-09-28T07:22:43.132Z,48.60
2022-09-28T07:23:54.218Z,48.60
2022-09-28T07:24:59.886Z,48.60
2022-09-28T07:26:24.036Z,48.60
2022-09-28T07:27:37.958Z,48.60
2022-09-28T07:28:52.894Z,48.60
2022-09-28T07:30:15.120Z,48.50
2022-09-28T07:31:37.856Z,48.40
2022-09-28T07:33:12.464Z,48.20
2022-09-28T07:34:23.959Z,48.30
2022-09-28T07:35:36.848Z,48.20
2022-09-28T07:36:39.111Z,48.10
2022-09-28T07:37:41.370Z,48.20
2022-09-28T07:38:43.990Z,48.00
2022-09-28T07:40:05.395Z,48.20
2022-09-28T07:41:14.144Z,48.30
2022-09-28T07:42:22.387Z,48.40
2022-09-28T07:43:24.823Z,48.40
2022-09-28T07:44:28.473Z,48.40
2022-09-28T07:45:35.802Z,48.40
2022-09-28T07:46:38.223Z,48.50
2022-09-28T07:47:51.063Z,48.40
2022-09-28T07:49:13.594Z,48.40
2022-09-28T07:50:29.770Z,48.40
2022-09-28T07:51:37.082Z,48.40
2022-09-28T07:52:55.514Z,48.40
2022-09-28T07:54:04.001Z,48.30
2022-09-28T07:55:15.811Z,48.40
2022-09-28T07:56:50.320Z,48.30
2022-09-28T07:58:17.324Z,48.30
2022-09-28T07:59:35.322Z,48.30
2022-09-28T08:01:04.658Z,48.30
2022-09-28T08:02:08.808Z,48.30
2022-09-28T08:03:11.136Z,48.30
2022-09-28T08:04:13.779Z,48.30
2022-09-28T08:05:17.940Z,48.30
2022-09-28T08:06:20.251Z,48.30
2022-09-28T08:07:25.554Z,48.20
2022-09-28T08:08:37.870Z,48.20
2022-09-28T08:09:40.826Z,48.20
2022-09-28T08:10:53.123Z,48.20
2022-09-28T08:11:59.538Z,48.20
2022-09-28T08:13:11.831Z,48.70
2022-09-28T08:14:35.373Z,48.20
2022-09-28T08:15:51.798Z,48.20
2022-09-28T08:17:07.729Z,48.20
2022-09-28T08:18:18.225Z,48.20
2022-09-28T08:19:20.463Z,48.20
2022-09-28T08:20:42.277Z,48.20
2022-09-28T08:21:47.810Z,48.20
2022-09-28T08:22:50.120Z,48.20
2022-09-28T08:23:52.988Z,48.20
2022-09-28T08:24:55.286Z,48.20
2022-09-28T08:25:58.337Z,48.20
2022-09-28T08:27:00.628Z,48.20
2022-09-28T08:28:08.891Z,48.20
2022-09-28T08:29:17.891Z,48.20
2022-09-28T08:30:27.194Z,48.20
2022-09-28T08:31:48.921Z,48.20
2022-09-28T08:33:07.720Z,48.20
2022-09-28T08:34:18.829Z,48.20
2022-09-28T08:35:41.787Z,48.20
2022-09-28T08:36:48.932Z,48.20
2022-09-28T08:38:20.283Z,48.10
2022-09-28T08:39:40.975Z,48.00
2022-09-28T08:41:17.527Z,47.50
2022-09-28T08:42:59.813Z,47.40
2022-09-28T08:44:26.372Z,47.30
2022-09-28T08:45:40.409Z,47.20
2022-09-28T08:47:05.401Z,47.30
2022-09-28T08:48:56.330Z,47.30
2022-09-28T08:50:26.917Z,47.20
2022-09-28T08:51:54.020Z,47.70
2022-09-28T08:53:11.674Z,47.80
2022-09-28T08:54:45.189Z,47.90
2022-09-28T08:55:53.807Z,48.00
2022-09-28T08:56:58.848Z,48.00
2022-09-28T08:58:06.645Z,48.00
2022-09-28T08:59:18.592Z,48.00
2022-09-28T09:00:44.479Z,48.00
2022-09-28T09:01:54.728Z,48.00
2022-09-28T09:02:58.087Z,48.00
2022-09-28T09:04:02.995Z,48.00
2022-09-28T09:05:14.710Z,48.00
2022-09-28T09:06:52.173Z,48.00
2022-09-28T09:08:03.869Z,48.00
2022-09-28T09:09:13.651Z,48.00
2022-09-28T09:10:40.532Z,48.00
2022-09-28T09:11:51.326Z,48.00
2022-09-28T09:13:06.200Z,47.80
2022-09-28T09:14:22.862Z,47.90
2022-09-28T09:15:38.892Z,47.40
2022-09-28T09:17:08.342Z,47.20
2022-09-28T09:18:47.181Z,47.50
2022-09-28T09:20:18.904Z,47.30
2022-09-28T09:21:42.671Z,47.30
2022-09-28T09:22:51.552Z,47.20
2022-09-28T09:23:55.248Z,47.40
2022-09-28T09:24:57.610Z,47.40
2022-09-28T09:26:03.915Z,47.50
2022-09-28T09:27:13.107Z,47.50
2022-09-28T09:28:15.387Z,47.70
2022-09-28T09:29:27.876Z,47.30
2022-09-28T09:30:39.901Z,47.40
2022-09-28T09:31:43.329Z,47.40
2022-09-28T09:33:24.214Z,47.20
2022-09-28T09:35:01.492Z,47.20
2022-09-28T09:36:30.564Z,47.30
2022-09-28T09:38:43.579Z,47.30
2022-09-28T09:40:26.556Z,47.40
2022-09-28T09:42:06.053Z,47.50
2022-09-28T09:43:45.916Z,47.50
2022-09-28T09:45:23.256Z,47.50
2022-09-28T09:46:52.160Z,47.40
2022-09-28T09:48:11.021Z,47.40
2022-09-28T09:49:23.031Z,47.40
2022-09-28T09:50:30.617Z,47.50
2022-09-28T09:51:43.843Z,47.50
2022-09-28T09:52:54.838Z,47.50
2022-09-28T09:54:00.390Z,47.60
2022-09-28T09:55:14.225Z,47.60
2022-09-28T09:56:31.432Z,47.60
2022-09-28T09:57:51.418Z,47.80
2022-09-28T09:59:14.988Z,47.80
2022-09-28T10:00:34.757Z,47.90
2022-09-28T10:01:50.610Z,47.80
2022-09-28T10:03:00.167Z,48.30
2022-09-28T10:04:17.739Z,45.20
2022-09-28T10:05:22.140Z,45.20
2022-09-28T10:06:33.351Z,44.80
2022-09-28T10:07:44.690Z,44.70
2022-09-28T10:09:01.617Z,44.70
2022-09-28T10:10:04.049Z,44.90
2022-09-28T10:11:22.351Z,45.20
2022-09-28T10:12:29.356Z,45.00
2022-09-28T10:13:32.823Z,44.50
2022-09-28T10:14:37.964Z,44.50
2022-09-28T10:15:45.272Z,45.10
2022-09-28T10:16:54.174Z,45.10
2022-09-28T10:18:18.999Z,45.30
2022-09-28T10:19:44.394Z,45.70
2022-09-28T10:21:05.371Z,45.60
2022-09-28T10:22:27.181Z,46.10
2022-09-28T10:23:33.958Z,45.00
2022-09-28T10:24:36.219Z,45.20
2022-09-28T10:25:38.663Z,45.10
2022-09-28T10:26:43.205Z,45.00
2022-09-28T10:27:49.533Z,44.70
2022-09-28T10:28:59.610Z,45.80
2022-09-28T10:30:12.750Z,46.10
2022-09-28T10:31:35.290Z,46.30
2022-09-28T10:32:44.376Z,46.80
2022-09-28T10:33:46.674Z,46.90
2022-09-28T10:34:51.088Z,47.40
2022-09-28T10:35:56.079Z,47.60
2022-09-28T10:37:01.194Z,47.50
2022-09-28T10:38:15.021Z,47.40
2022-09-28T10:39:36.768Z,47.20
2022-09-28T10:40:39.643Z,47.20
2022-09-28T10:41:49.350Z,47.30
2022-09-28T10:42:59.468Z,47.50
2022-09-28T10:44:10.861Z,47.80
2022-09-28T10:45:37.061Z,47.50
2022-09-28T10:46:39.453Z,47.30
2022-09-28T10:47:46.922Z,47.50
2022-09-28T10:48:53.994Z,47.30
2022-09-28T10:49:59.756Z,47.60
2022-09-28T10:51:05.446Z,47.20
2022-09-28T10:52:28.663Z,47.40
2022-09-28T10:53:31.850Z,46.70
2022-09-28T10:54:52.397Z,47.30
2022-09-28T10:55:57.751Z,47.90
2022-09-28T10:57:00.270Z,48.60
2022-09-28T10:58:26.535Z,48.10
2022-09-28T10:59:28.899Z,48.50
2022-09-28T11:00:45.267Z,49.50
2022-09-28T11:01:55.281Z,49.90
2022-09-28T11:02:57.645Z,49.10
2022-09-28T11:04:04.164Z,49.00
2022-09-28T11:05:07.119Z,49.10
2022-09-28T11:06:14.553Z,50.10
2022-09-28T11:07:18.029Z,52.00
2022-09-28T11:08:25.179Z,52.70
2022-09-28T11:09:31.808Z,52.40
2022-09-28T11:10:39.522Z,52.90
2022-09-28T11:11:49.745Z,53.10
2022-09-28T11:12:52.651Z,53.90
2022-09-28T11:14:00.327Z,56.60
2022-09-28T11:15:07.093Z,53.70
2022-09-28T11:16:18.755Z,55.90
2022-09-28T11:17:28.496Z,54.10
2022-09-28T11:18:32.548Z,54.30
2022-09-28T11:19:45.472Z,54.00
2022-09-28T11:20:49.461Z,52.60
2022-09-28T11:21:52.141Z,55.10
2022-09-28T11:22:59.935Z,55.80
2022-09-28T11:24:19.491Z,55.80
2022-09-28T11:25:24.599Z,54.00
2022-09-28T11:26:28.041Z,53.00
2022-09-28T11:27:31.038Z,55.90
2022-09-28T11:28:35.963Z,56.30
2022-09-28T11:29:46.194Z,57.00
2022-09-28T11:31:26.161Z,54.90
2022-09-28T11:32:41.889Z,46.70
2022-09-28T11:34:15.068Z,46.10
2022-09-28T11:35:44.922Z,45.80
2022-09-28T11:37:01.809Z,45.80
2022-09-28T11:38:11.436Z,46.50
2022-09-28T11:39:48.561Z,47.80
2022-09-28T11:41:02.714Z,48.80
2022-09-28T11:42:24.567Z,52.80
2022-09-28T11:43:36.363Z,50.00
2022-09-28T11:44:48.847Z,51.10
2022-09-28T11:46:01.481Z,52.00
2022-09-28T11:47:22.993Z,51.40
2022-09-28T11:48:32.936Z,51.40
2022-09-28T11:49:40.706Z,51.40
2022-09-28T11:50:52.315Z,52.70
2022-09-28T11:51:57.384Z,53.70
2022-09-28T11:53:18.408Z,52.60
2022-09-28T11:54:39.783Z,51.80
2022-09-28T11:55:56.916Z,53.30
2022-09-28T11:57:01.495Z,52.80
2022-09-28T11:58:08.957Z,53.00
2022-09-28T11:59:14.592Z,52.80
2022-09-28T12:00:22.537Z,52.60
2022-09-28T12:01:36.164Z,52.80
2022-09-28T12:03:00.349Z,52.70
2022-09-28T12:04:06.702Z,53.90
2022-09-28T12:05:15.965Z,52.80
2022-09-28T12:06:26.471Z,52.40
2022-09-28T12:07:34.597Z,55.00
2022-09-28T12:08:47.132Z,54.20
2022-09-28T12:10:47.530Z,53.80
2022-09-28T12:11:55.983Z,52.30
2022-09-28T12:13:22.936Z,51.80
2022-09-28T12:14:31.670Z,45.80
2022-09-28T12:16:15.034Z,44.90
2022-09-28T12:17:20.366Z,44.70
2022-09-28T12:18:25.001Z,46.00
2022-09-28T12:19:36.276Z,46.40
2022-09-28T12:20:41.831Z,47.00
2022-09-28T12:21:53.750Z,47.90
2022-09-28T12:22:59.840Z,51.50
2022-09-28T12:24:05.181Z,51.90
2022-09-28T12:25:12.566Z,52.70
2022-09-28T12:26:24.399Z,53.20
2022-09-28T12:27:29.789Z,52.20
2022-09-28T12:28:39.293Z,54.00
2022-09-28T12:29:48.151Z,54.40
2022-09-28T12:30:51.605Z,53.40
2022-09-28T12:31:57.584Z,51.50
2022-09-28T12:32:59.903Z,51.70
2022-09-28T12:34:05.130Z,55.30
2022-09-28T12:35:11.611Z,54.50
2022-09-28T12:36:14.434Z,55.20
2022-09-28T12:37:23.135Z,55.60
2022-09-28T12:38:28.498Z,55.40
2022-09-28T12:39:56.425Z,55.10
2022-09-28T12:41:16.831Z,55.80
2022-09-28T12:42:32.646Z,55.30
2022-09-28T12:43:54.640Z,55.70
2022-09-28T12:45:08.948Z,55.20
2022-09-28T12:46:25.310Z,56.60
2022-09-28T12:47:46.412Z,57.30
2022-09-28T12:50:07.268Z,57.60
2022-09-28T12:50:39.906Z,57.80
2022-09-28T12:51:54.437Z,57.50
2022-09-28T12:52:59.313Z,57.80
2022-09-28T12:54:23.134Z,58.30
2022-09-28T12:55:41.838Z,58.10
2022-09-28T12:57:02.953Z,58.30
2022-09-28T12:58:08.088Z,58.10
2022-09-28T12:59:33.371Z,58.20
2022-09-28T13:00:52.247Z,58.00
2022-09-28T13:02:08.029Z,58.20
2022-09-28T13:03:19.580Z,58.20
2022-09-28T13:04:24.574Z,58.50
2022-09-28T13:05:44.897Z,58.60
2022-09-28T13:06:51.829Z,58.80
2022-09-28T13:08:03.617Z,58.70
2022-09-28T13:09:08.622Z,58.70
2022-09-28T13:10:19.788Z,58.60
2022-09-28T13:11:31.807Z,57.70
2022-09-28T13:12:54.880Z,57.80
2022-09-28T13:13:57.421Z,58.50
2022-09-28T13:15:18.454Z,57.60
2022-09-28T13:16:26.812Z,55.80
2022-09-28T13:17:51.867Z,53.00
2022-09-28T13:18:54.076Z,47.20
2022-09-28T13:20:09.043Z,44.90
2022-09-28T13:21:18.574Z,44.80
2022-09-28T13:22:43.550Z,44.60
2022-09-28T13:23:47.259Z,44.40
2022-09-28T13:24:50.407Z,43.40
2022-09-28T13:25:58.645Z,43.20
2022-09-28T13:27:07.182Z,43.30
2022-09-28T13:28:11.428Z,42.60
2022-09-28T13:29:16.303Z,42.50
2022-09-28T13:30:19.302Z,44.30
2022-09-28T13:31:25.822Z,44.20
2022-09-28T13:32:31.527Z,44.40
2022-09-28T13:33:40.696Z,45.40
2022-09-28T13:34:46.729Z,47.20
2022-09-28T13:35:49.292Z,47.90
2022-09-28T13:37:09.978Z,47.80
2022-09-28T13:38:17.927Z,48.40
2022-09-28T13:39:35.180Z,52.30
2022-09-28T13:41:06.801Z,54.90
2022-09-28T13:42:09.527Z,52.10
2022-09-28T13:43:26.863Z,54.20
2022-09-28T13:44:46.123Z,56.70
2022-09-28T13:45:52.738Z,56.80
2022-09-28T13:47:04.731Z,56.80
2022-09-28T13:48:14.519Z,56.20
2022-09-28T13:49:26.384Z,56.00
2022-09-28T13:50:39.080Z,54.70
2022-09-28T13:52:07.732Z,56.90
2022-09-28T13:53:28.667Z,56.50
2022-09-28T13:55:09.575Z,56.70
2022-09-28T13:56:31.967Z,57.30
2022-09-28T13:57:41.649Z,57.00
2022-09-28T13:58:47.479Z,57.10
2022-09-28T13:59:53.527Z,55.80
2022-09-28T14:00:55.867Z,56.80
2022-09-28T14:02:06.885Z,56.30
2022-09-28T14:03:42.076Z,54.50
2022-09-28T14:04:53.385Z,55.70
2022-09-28T14:06:04.767Z,55.40
2022-09-28T14:07:14.880Z,51.80
2022-09-28T14:08:27.183Z,55.30
2022-09-28T14:09:40.375Z,51.10
2022-09-28T14:10:52.891Z,50.90
2022-09-28T14:11:59.380Z,50.90
2022-09-28T14:13:04.116Z,50.80
2022-09-28T14:14:08.752Z,50.70
2022-09-28T14:15:29.261Z,55.90
2022-09-28T14:16:32.724Z,56.10
2022-09-28T14:17:55.174Z,55.40
2022-09-28T14:19:02.852Z,54.20
2022-09-28T14:20:14.944Z,55.20
2022-09-28T14:21:19.856Z,55.00
2022-09-28T14:22:29.153Z,55.10
2022-09-28T14:23:37.111Z,53.20
2022-09-28T14:24:57.932Z,45.40
2022-09-28T14:26:14.818Z,44.50
2022-09-28T14:27:26.539Z,43.90
2022-09-28T14:28:40.177Z,43.50
2022-09-28T14:29:42.540Z,45.10
2022-09-28T14:30:49.619Z,46.20
2022-09-28T14:31:51.795Z,47.50
2022-09-28T14:32:55.791Z,49.40
2022-09-28T14:33:59.371Z,53.30
2022-09-28T14:35:04.613Z,53.60
2022-09-28T14:36:07.839Z,53.60
2022-09-28T14:37:44.174Z,53.40
2022-09-28T14:39:08.548Z,52.50
2022-09-28T14:40:40.509Z,55.60
2022-09-28T14:41:43.900Z,54.40
2022-09-28T14:43:06.005Z,53.90
2022-09-28T14:44:08.564Z,55.70
2022-09-28T14:45:10.721Z,55.10
2022-09-28T14:46:16.872Z,53.50
2022-09-28T14:47:33.269Z,54.40
2022-09-28T14:48:43.463Z,55.70
2022-09-28T14:49:47.557Z,55.60
2022-09-28T14:50:50.151Z,55.80
2022-09-28T14:51:55.891Z,54.20
2022-09-28T14:53:04.929Z,55.40
2022-09-28T14:54:13.023Z,52.10
2022-09-28T14:55:17.249Z,52.80
2022-09-28T14:56:19.659Z,55.70
2022-09-28T14:57:24.117Z,55.50
2022-09-28T14:58:27.559Z,54.40
2022-09-28T14:59:36.087Z,54.10
2022-09-28T15:00:38.590Z,56.20
2022-09-28T15:01:42.223Z,56.00
2022-09-28T15:02:48.323Z,53.60